createdAt,value
2022-10-06T00:01:03.120Z,101024.94
2022-10-06T00:04:06.126Z,101027.47
2022-10-06T00:07:07.998Z,101034.84
2022-10-06T00:10:09.869Z,101025.34
2022-10-06T00:13:11.552Z,101039.63
2022-10-06T00:16:17.335Z,101041.53
2022-10-06T00:19:20.559Z,101044.13
2022-10-06T00:22:22.162Z,101030.50
2022-10-06T00:25:25.572Z,101035.50
2022-10-06T00:28:27.896Z,101019.44
2022-10-06T00:31:30.089Z,101020.13
2022-10-06T00:34:33.119Z,101025.63
2022-10-06T00:37:38.123Z,101030.19
2022-10-06T00:40:45.916Z,101027.63
2022-10-06T00:43:52.066Z,101028.59
2022-10-06T00:46:54.774Z,101026.28
2022-10-06T00:49:59.109Z,101045.09
2022-10-06T00:53:01.155Z,101042.88
2022-10-06T00:56:02.828Z,101064.00
2022-10-06T00:59:06.688Z,101070.16
2022-10-06T01:02:13.012Z,101077.56
2022-10-06T01:05:23.939Z,101080.53
2022-10-06T01:08:26.347Z,101094.25
2022-10-06T01:11:28.213Z,101098.91
2022-10-06T01:14:30.615Z,101105.25
2022-10-06T01:17:37.638Z,101104.47
2022-10-06T01:20:44.122Z,101095.97
2022-10-06T01:23:47.350Z,101107.72
2022-10-06T01:26:51.513Z,101106.25
2022-10-06T01:29:55.690Z,101102.66
2022-10-06T01:32:57.433Z,101107.53
2022-10-06T01:35:59.902Z,101103.81
2022-10-06T01:39:03.028Z,101101.69
2022-10-06T01:42:05.008Z,101106.22
2022-10-06T01:45:08.477Z,101104.88
2022-10-06T01:48:10.254Z,101119.88
2022-10-06T01:51:14.277Z,101114.03
2022-10-06T01:54:17.421Z,101121.44
2022-10-06T01:57:21.200Z,101125.97
2022-10-06T02:00:23.175Z,101123.69
2022-10-06T02:03:24.893Z,101128.88
2022-10-06T02:06:26.561Z,101132.97
2022-10-06T02:09:29.590Z,101127.28
2022-10-06T02:12:31.781Z,101129.25
2022-10-06T02:15:34.816Z,101131.94
2022-10-06T02:18:36.572Z,101135.78
2022-10-06T02:21:38.787Z,101134.53
2022-10-06T02:24:41.737Z,101142.78
2022-10-06T02:27:43.911Z,101160.03
2022-10-06T02:30:46.787Z,101164.56
2022-10-06T02:33:48.519Z,101170.66
2022-10-06T02:36:52.227Z,101179.16
2022-10-06T02:39:55.431Z,101178.22
2022-10-06T02:42:58.354Z,101187.09
2022-10-06T02:46:02.707Z,101193.59
2022-10-06T02:49:04.485Z,101201.44
2022-10-06T02:52:06.142Z,101212.47
2022-10-06T02:55:10.186Z,101217.22
2022-10-06T02:58:11.883Z,101230.34
2022-10-06T03:01:16.752Z,101236.84
2022-10-06T03:04:18.891Z,101233.78
2022-10-06T03:07:20.645Z,101250.09
2022-10-06T03:10:23.713Z,101258.31
2022-10-06T03:13:25.573Z,101259.91
2022-10-06T03:16:30.956Z,101258.72
2022-10-06T03:19:34.211Z,101260.31
2022-10-06T03:22:35.853Z,101260.56
2022-10-06T03:25:55.252Z,101273.81
2022-10-06T03:28:57.867Z,101288.00
2022-10-06T03:31:59.769Z,101285.50
2022-10-06T03:35:01.430Z,101289.50
2022-10-06T03:38:03.541Z,101295.44
2022-10-06T03:41:09.095Z,101297.44
2022-10-06T03:44:10.786Z,101307.91
2022-10-06T03:47:17.476Z,101312.16
2022-10-06T03:50:20.216Z,101317.44
2022-10-06T03:53:25.642Z,101328.19
2022-10-06T03:56:30.539Z,101328.84
2022-10-06T03:59:34.281Z,101322.88
2022-10-06T04:02:38.277Z,101330.28
2022-10-06T04:05:40.005Z,101333.84
2022-10-06T04:08:41.978Z,101339.25
2022-10-06T04:11:45.220Z,101346.19
2022-10-06T04:14:47.325Z,101348.66
2022-10-06T04:17:48.972Z,101346.59
2022-10-06T04:20:50.923Z,101354.28
2022-10-06T04:23:53.225Z,101367.97
2022-10-06T04:27:16.363Z,101367.34
2022-10-06T04:30:22.293Z,101379.13
2022-10-06T04:33:24.530Z,101377.28
2022-10-06T04:36:29.142Z,101386.53
2022-10-06T04:39:30.708Z,101383.28
2022-10-06T04:42:35.249Z,101385.13
2022-10-06T04:45:39.288Z,101386.44
2022-10-06T04:48:41.149Z,101391.75
2022-10-06T04:51:42.863Z,101395.28
2022-10-06T04:54:44.571Z,101396.50
2022-10-06T04:57:48.269Z,101400.91
2022-10-06T05:00:50.067Z,101405.50
2022-10-06T05:03:54.136Z,101404.22
2022-10-06T05:06:56.079Z,101409.31
2022-10-06T05:09:57.832Z,101412.13
2022-10-06T05:13:03.666Z,101423.34
2022-10-06T05:16:08.137Z,101422.75
2022-10-06T05:19:11.835Z,101422.41
2022-10-06T05:22:14.849Z,101438.22
2022-10-06T05:25:16.560Z,101451.38
2022-10-06T05:28:20.203Z,101448.44
2022-10-06T05:31:23.509Z,101459.72
2022-10-06T05:34:25.533Z,101456.59
2022-10-06T05:37:27.269Z,101463.22
2022-10-06T05:40:29.502Z,101463.66
2022-10-06T05:43:34.057Z,101459.72
2022-10-06T05:46:36.193Z,101472.38
2022-10-06T05:49:37.823Z,101477.66
2022-10-06T05:52:40.413Z,101485.88
2022-10-06T05:55:42.116Z,101491.97
2022-10-06T05:58:47.534Z,101501.38
2022-10-06T06:01:50.289Z,101512.19
2022-10-06T06:05:05.952Z,101509.53
2022-10-06T06:08:07.806Z,101517.66
2022-10-06T06:11:10.346Z,101522.84
2022-10-06T06:14:15.466Z,101534.31
2022-10-06T06:17:17.511Z,101534.63
2022-10-06T06:20:19.370Z,101543.63
2022-10-06T06:23:21.079Z,101545.53
2022-10-06T06:26:24.936Z,101545.41
2022-10-06T06:29:28.578Z,101560.50
2022-10-06T06:32:30.357Z,101564.22
2022-10-06T06:35:34.289Z,101566.09
2022-10-06T06:38:36.202Z,101576.88
2022-10-06T06:41:40.496Z,101588.50
2022-10-06T06:44:54.765Z,101596.66
2022-10-06T06:48:03.347Z,101604.53
2022-10-06T06:51:07.477Z,101608.38
2022-10-06T06:54:11.025Z,101610.66
2022-10-06T06:57:16.518Z,101615.19
2022-10-06T07:00:23.252Z,101616.31
2022-10-06T07:03:52.008Z,101619.66
2022-10-06T07:06:53.416Z,101625.78
2022-10-06T07:09:55.780Z,101626.59
2022-10-06T07:12:59.758Z,101634.28
2022-10-06T07:16:21.395Z,101636.19
2022-10-06T07:19:42.307Z,101645.09
2022-10-06T07:23:05.345Z,101654.81
2022-10-06T07:26:07.241Z,101673.56
2022-10-06T07:29:09.325Z,101676.94
2022-10-06T07:32:12.969Z,101677.28
2022-10-06T07:35:16.504Z,101684.91
2022-10-06T07:38:18.612Z,101690.31
2022-10-06T07:41:25.155Z,101691.41
2022-10-06T07:44:30.220Z,101696.72
2022-10-06T07:47:33.745Z,101699.84
2022-10-06T07:50:38.024Z,101697.78
2022-10-06T07:53:39.789Z,101710.34
2022-10-06T07:56:50.264Z,101712.19
2022-10-06T07:59:52.342Z,101705.97
2022-10-06T08:02:55.797Z,101699.09
2022-10-06T08:05:59.759Z,101711.56
2022-10-06T08:09:04.166Z,101716.66
2022-10-06T08:12:25.886Z,101716.16
2022-10-06T08:15:27.731Z,101718.00
2022-10-06T08:18:47.202Z,101728.44
2022-10-06T08:21:49.053Z,101726.56
2022-10-06T08:25:05.159Z,101728.44
2022-10-06T08:28:07.243Z,101729.16
2022-10-06T08:31:11.582Z,101729.91
2022-10-06T08:34:14.782Z,101732.22
2022-10-06T08:37:20.320Z,101743.56
2022-10-06T08:40:23.029Z,101740.44
2022-10-06T08:43:26.156Z,101744.50
2022-10-06T08:46:34.791Z,101734.88
2022-10-06T08:49:40.893Z,101737.50
2022-10-06T08:52:51.437Z,101740.34
2022-10-06T08:56:00.422Z,101743.88
2022-10-06T08:59:04.404Z,101750.53
2022-10-06T09:02:21.951Z,101746.59
2022-10-06T09:05:26.633Z,101752.91
2022-10-06T09:08:37.983Z,101760.00
2022-10-06T09:11:46.810Z,101757.50
2022-10-06T09:14:55.304Z,101760.97
2022-10-06T09:18:02.291Z,101750.22
2022-10-06T09:21:12.253Z,101768.69
2022-10-06T09:24:17.453Z,101758.59
2022-10-06T09:27:21.867Z,101763.53
2022-10-06T09:30:24.255Z,101772.25
2022-10-06T09:33:32.015Z,101770.13
2022-10-06T09:37:01.697Z,101774.38
2022-10-06T09:40:33.715Z,101772.16
2022-10-06T09:43:35.436Z,101776.75
2022-10-06T09:46:41.722Z,101773.75
2022-10-06T09:49:44.029Z,101776.88
2022-10-06T09:53:21.869Z,101786.13
2022-10-06T09:56:23.821Z,101791.31
2022-10-06T09:59:35.058Z,101797.63
2022-10-06T10:02:40.914Z,101788.19
2022-10-06T10:05:48.252Z,101787.00
2022-10-06T10:08:51.345Z,101787.34
2022-10-06T10:12:30.858Z,101788.84
2022-10-06T10:15:40.373Z,101793.59
2022-10-06T10:18:46.805Z,101787.34
2022-10-06T10:21:48.525Z,101796.69
2022-10-06T10:25:01.077Z,101785.91
2022-10-06T10:28:09.644Z,101780.31
2022-10-06T10:31:18.710Z,101782.19
2022-10-06T10:34:39.951Z,101791.63
2022-10-06T10:37:47.354Z,101791.53
2022-10-06T10:40:55.807Z,101790.44
2022-10-06T10:44:09.930Z,101785.38
2022-10-06T10:47:17.878Z,101789.25
2022-10-06T10:50:27.511Z,101786.06
2022-10-06T10:53:40.226Z,101786.97
2022-10-06T10:56:49.089Z,101788.94
2022-10-06T10:59:58.693Z,101796.19
2022-10-06T11:03:01.565Z,101786.63
2022-10-06T11:06:21.398Z,101793.84
2022-10-06T11:09:28.927Z,101801.41
2022-10-06T11:12:54.220Z,101797.00
2022-10-06T11:16:23.223Z,101789.66
2022-10-06T11:19:37.482Z,101798.16
2022-10-06T11:22:45.094Z,101790.81
2022-10-06T11:25:55.575Z,101791.38
2022-10-06T11:29:01.773Z,101791.53
2022-10-06T11:32:16.596Z,101788.63
2022-10-06T11:35:21.344Z,101781.66
2022-10-06T11:38:27.163Z,101778.31
2022-10-06T11:41:34.480Z,101789.19
2022-10-06T11:44:42.618Z,101776.59
2022-10-06T11:48:13.627Z,101773.00
2022-10-06T11:51:33.422Z,101775.53
2022-10-06T11:54:47.617Z,101773.53
2022-10-06T11:58:29.753Z,101773.41
2022-10-06T12:01:55.755Z,101765.03
2022-10-06T12:08:55.905Z,101764.41
2022-10-06T12:12:01.296Z,101763.94
2022-10-06T12:17:08.508Z,101754.84
2022-10-06T12:19:18.655Z,101749.19
2022-10-06T12:22:26.246Z,101742.16
2022-10-06T12:25:34.717Z,101747.28
2022-10-06T12:28:40.984Z,101743.31
2022-10-06T12:31:50.679Z,101748.38
2022-10-06T12:35:01.316Z,101743.28
2022-10-06T12:38:05.815Z,101740.00
2022-10-06T12:41:10.257Z,101742.94
2022-10-06T12:44:23.136Z,101732.38
2022-10-06T12:47:34.729Z,101729.81
2022-10-06T12:50:38.849Z,101723.84
2022-10-06T12:53:49.553Z,101730.31
2022-10-06T12:56:58.970Z,101727.31
2022-10-06T13:00:00.891Z,101730.41
2022-10-06T13:03:06.154Z,101735.09
2022-10-06T13:06:09.587Z,101722.09
2022-10-06T13:09:14.306Z,101722.03
2022-10-06T13:12:21.599Z,101719.47
2022-10-06T13:15:25.341Z,101716.09
2022-10-06T13:18:27.906Z,101720.31
2022-10-06T13:21:31.642Z,101721.78
2022-10-06T13:24:34.546Z,101723.38
2022-10-06T13:27:36.575Z,101719.91
2022-10-06T13:30:39.034Z,101705.28
2022-10-06T13:33:42.930Z,101710.72
2022-10-06T13:36:48.773Z,101712.81
2022-10-06T13:39:50.490Z,101705.38
2022-10-06T13:42:52.157Z,101710.53
2022-10-06T13:45:54.411Z,101706.00
2022-10-06T13:49:00.696Z,101703.53
2022-10-06T13:52:15.078Z,101703.84
2022-10-06T13:55:20.643Z,101693.88
2022-10-06T13:58:26.910Z,101702.31
2022-10-06T14:01:30.007Z,101700.72
2022-10-06T14:04:34.697Z,101703.28
2022-10-06T14:07:44.411Z,101713.91
2022-10-06T14:10:49.432Z,101693.69
2022-10-06T14:13:55.042Z,101700.88
2022-10-06T14:16:57.786Z,101694.81
2022-10-06T14:19:59.626Z,101698.31
2022-10-06T14:23:32.983Z,101688.91
2022-10-06T14:26:34.683Z,101698.31
2022-10-06T14:29:37.873Z,101692.88
2022-10-06T14:32:40.107Z,101680.66
2022-10-06T14:35:43.467Z,101676.84
2022-10-06T14:38:48.664Z,101676.03
2022-10-06T14:41:50.387Z,101683.13
2022-10-06T14:44:52.094Z,101683.09
2022-10-06T14:47:53.801Z,101683.16
2022-10-06T14:50:57.645Z,101674.41
2022-10-06T14:54:00.894Z,101679.22
2022-10-06T14:57:02.591Z,101676.72
2022-10-06T15:00:05.509Z,101676.72
2022-10-06T15:03:07.201Z,101669.06
2022-10-06T15:06:29.447Z,101669.41
2022-10-06T15:09:32.927Z,101668.44
2022-10-06T15:12:34.574Z,101662.47
2022-10-06T15:15:36.765Z,101656.75
2022-10-06T15:18:42.602Z,101654.59
2022-10-06T15:21:45.583Z,101655.88
2022-10-06T15:24:51.247Z,101654.78
2022-10-06T15:28:11.473Z,101646.59
2022-10-06T15:31:13.251Z,101649.66
2022-10-06T15:34:15.017Z,101652.09
2022-10-06T15:37:19.871Z,101657.13
2022-10-06T15:40:22.972Z,101655.53
2022-10-06T15:43:44.577Z,101648.16
2022-10-06T15:46:49.220Z,101645.22
2022-10-06T15:49:51.172Z,101639.75
2022-10-06T15:52:52.866Z,101646.00
2022-10-06T15:55:58.918Z,101648.00
2022-10-06T15:59:00.758Z,101645.06
2022-10-06T16:02:05.039Z,101638.28
2022-10-06T16:05:07.085Z,101643.19
2022-10-06T16:08:08.713Z,101638.94
2022-10-06T16:11:11.712Z,101643.19
2022-10-06T16:14:14.317Z,101635.34
2022-10-06T16:17:17.408Z,101645.00
2022-10-06T16:20:19.067Z,101641.41
2022-10-06T16:23:20.839Z,101639.63
2022-10-06T16:26:24.681Z,101640.41
2022-10-06T16:29:27.525Z,101641.38
2022-10-06T16:32:29.357Z,101643.31
2022-10-06T16:35:31.062Z,101641.50
2022-10-06T16:38:32.934Z,101637.88
2022-10-06T16:41:36.092Z,101639.03
2022-10-06T16:44:37.869Z,101645.03
2022-10-06T16:47:39.620Z,101637.13
2022-10-06T16:50:41.450Z,101647.56
2022-10-06T16:53:44.741Z,101642.66
2022-10-06T16:56:51.678Z,101642.66
2022-10-06T16:59:53.489Z,101647.69
2022-10-06T17:02:55.305Z,101646.97
2022-10-06T17:06:02.302Z,101651.63
2022-10-06T17:09:03.963Z,101658.00
2022-10-06T17:12:07.336Z,101651.47
2022-10-06T17:15:09.468Z,101655.81
2022-10-06T17:18:11.108Z,101662.16
2022-10-06T17:21:39.707Z,101668.09
2022-10-06T17:24:34.987Z,101664.97
2022-10-06T17:27:41.960Z,101652.78
2022-10-06T17:30:51.587Z,101664.31
2022-10-06T17:33:53.807Z,101670.34
2022-10-06T17:36:55.799Z,101672.69
2022-10-06T17:39:57.422Z,101671.94
2022-10-06T17:43:00.435Z,101668.84
2022-10-06T17:46:04.500Z,101661.78
2022-10-06T17:49:08.162Z,101666.03
2022-10-06T17:52:09.915Z,101664.66
2022-10-06T17:55:11.660Z,101678.81
2022-10-06T17:58:18.565Z,101667.88
2022-10-06T18:01:21.219Z,101666.00
2022-10-06T18:04:23.639Z,101676.91
2022-10-06T18:07:25.285Z,101664.31
2022-10-06T18:10:45.615Z,101663.03
2022-10-06T18:13:49.525Z,101667.75
2022-10-06T18:16:57.457Z,101658.75
2022-10-06T18:19:59.303Z,101658.75
2022-10-06T18:23:01.037Z,101659.34
2022-10-06T18:26:03.916Z,101659.03
2022-10-06T18:29:07.560Z,101661.63
2022-10-06T18:33:40.720Z,101671.31
2022-10-06T18:38:55.345Z,101659.09
2022-10-06T18:41:59.010Z,101658.81
2022-10-06T18:45:20.445Z,101664.22
2022-10-06T18:48:40.791Z,101662.47
2022-10-06T18:51:44.382Z,101650.75
2022-10-06T18:54:46.359Z,101657.69
2022-10-06T18:57:48.092Z,101663.94
2022-10-06T19:00:51.846Z,101659.88
2022-10-06T19:03:54.945Z,101669.00
2022-10-06T19:06:56.713Z,101668.41
2022-10-06T19:09:59.053Z,101659.09
2022-10-06T19:13:01.060Z,101661.75
2022-10-06T19:16:04.288Z,101663.31
2022-10-06T19:19:10.667Z,101665.59
2022-10-06T19:22:14.112Z,101664.41
2022-10-06T19:25:18.914Z,101663.38
2022-10-06T19:28:20.832Z,101674.00
2022-10-06T19:31:23.854Z,101670.19
2022-10-06T19:34:26.447Z,101675.03
2022-10-06T19:37:30.235Z,101667.16
2022-10-06T19:40:32.027Z,101663.91
2022-10-06T19:43:33.857Z,101671.53
2022-10-06T19:46:37.559Z,101670.53
2022-10-06T19:49:39.330Z,101667.72
2022-10-06T19:52:41.302Z,101673.06
2022-10-06T19:55:43.524Z,101674.47
2022-10-06T19:58:45.357Z,101671.75
2022-10-06T20:01:50.024Z,101679.75
2022-10-06T20:04:51.879Z,101681.53
2022-10-06T20:07:54.179Z,101686.84
2022-10-06T20:11:01.823Z,101688.28
2022-10-06T20:14:04.282Z,101681.31
2022-10-06T20:17:07.760Z,101677.41
2022-10-06T20:20:10.152Z,101677.59
2022-10-06T20:23:12.365Z,101675.13
2022-10-06T20:26:17.246Z,101670.38
2022-10-06T20:29:21.233Z,101668.16
2022-10-06T20:32:24.657Z,101682.63
2022-10-06T20:35:26.341Z,101680.84
2022-10-06T20:39:00.137Z,101673.44
2022-10-06T20:42:02.196Z,101681.53
2022-10-06T20:45:04.350Z,101673.00
2022-10-06T20:48:07.430Z,101667.34
2022-10-06T20:51:10.396Z,101676.59
2022-10-06T20:54:13.255Z,101669.16
2022-10-06T20:57:14.892Z,101662.97
2022-10-06T21:00:18.042Z,101671.84
2022-10-06T21:03:21.036Z,101662.75
2022-10-06T21:06:24.003Z,101661.25
2022-10-06T21:09:28.154Z,101657.78
2022-10-06T21:12:29.847Z,101653.66
2022-10-06T21:15:31.569Z,101654.47
2022-10-06T21:18:34.669Z,101655.38
2022-10-06T21:21:37.490Z,101659.66
2022-10-06T21:24:39.133Z,101650.63
2022-10-06T21:27:41.041Z,101653.16
2022-10-06T21:30:44.133Z,101647.53
2022-10-06T21:33:48.633Z,101654.47
2022-10-06T21:36:50.463Z,101651.69
2022-10-06T21:39:52.057Z,101652.78
2022-10-06T21:42:53.681Z,101647.34
2022-10-06T21:46:17.111Z,101639.88
2022-10-06T21:49:19.952Z,101633.72
2022-10-06T21:52:21.634Z,101637.13
2022-10-06T21:55:23.286Z,101635.25
2022-10-06T21:58:25.202Z,101632.63
2022-10-06T22:01:28.373Z,101630.78
2022-10-06T22:04:31.421Z,101634.31
2022-10-06T22:07:33.039Z,101631.34
2022-10-06T22:10:34.678Z,101637.31
2022-10-06T22:13:36.310Z,101623.66
2022-10-06T22:16:38.653Z,101631.56
2022-10-06T22:19:41.618Z,101634.38
2022-10-06T22:22:43.258Z,101633.28
2022-10-06T22:25:45.032Z,101640.06
2022-10-06T22:28:48.243Z,101635.72
2022-10-06T22:31:50.022Z,101628.59
2022-10-06T22:34:53.713Z,101626.94
2022-10-06T22:37:55.285Z,101623.97
2022-10-06T22:40:59.749Z,101630.78
2022-10-06T22:44:01.435Z,101621.94
2022-10-06T22:47:03.110Z,101618.97
2022-10-06T22:50:07.424Z,101615.22
2022-10-06T22:53:10.140Z,101616.41
2022-10-06T22:56:12.265Z,101620.75
2022-10-06T22:59:13.943Z,101609.84
2022-10-06T23:02:16.247Z,101606.28
2022-10-06T23:05:19.223Z,101604.81
2022-10-06T23:08:20.853Z,101604.25
2022-10-06T23:11:22.963Z,101604.84
2022-10-06T23:14:24.525Z,101609.31
2022-10-06T23:17:26.169Z,101600.16
2022-10-06T23:20:29.195Z,101601.06
2022-10-06T23:23:31.397Z,101596.41
2022-10-06T23:26:33.224Z,101596.22
2022-10-06T23:29:35.227Z,101598.44
2022-10-06T23:32:37.475Z,101599.59
2022-10-06T23:35:40.659Z,101586.28
2022-10-06T23:38:42.399Z,101595.84
2022-10-06T23:41:44.240Z,101583.31
2022-10-06T23:44:45.985Z,101582.38
2022-10-06T23:47:47.741Z,101582.00
2022-10-06T23:50:59.042Z,101575.06
2022-10-06T23:54:00.644Z,101563.09
2022-10-06T23:57:02.285Z,101559.38
